Time;durP1;ratioP1;P1;durP2;ratioP2;P2;SDS_P1;SDS_P2;PMS_P1;PMS_P2;Temp;Humidity;BMP_temperature;BMP_pressure;BME280_temperature;BME280_humidity;BME280_pressure;Samples;Min_cycle;Max_cycle;Signal;HPM_P1;HPM_P2
2023/09/13 00:00:14;;;;;;;33.95;30.35;;;;;;;23.69;71.09;100523.03;682654;29;1377;-85
2023/09/13 00:00:34;;;;;;;33.60;30.30;;;;;;;23.73;71.28;100523.84;685104;28;1027;-84
2023/09/13 00:00:56;;;;;;;36.25;32.45;;;;;;;23.71;71.31;100525.66;685650;28;866;-85
2023/09/13 00:01:16;;;;;;;36.28;32.58;;;;;;;23.56;71.69;100520.72;682982;28;1383;-85
2023/09/13 00:01:37;;;;;;;36.37;32.70;;;;;;;23.52;71.74;100526.19;682568;28;1073;-85
2023/09/13 00:01:58;;;;;;;35.10;31.83;;;;;;;23.41;71.91;100518.53;685530;28;1264;-85
2023/09/13 00:02:19;;;;;;;34.83;31.43;;;;;;;23.51;71.77;100519.13;682716;28;1151;-85
2023/09/13 00:02:40;;;;;;;35.00;31.40;;;;;;;23.62;71.79;100526.78;682475;28;1248;-85
2023/09/13 00:03:01;;;;;;;36.53;32.35;;;;;;;23.62;71.43;100526.78;688256;28;1141;-86
2023/09/13 00:03:22;;;;;;;36.60;32.43;;;;;;;23.60;71.35;100524.16;688256;28;1200;-85
2023/09/13 00:03:42;;;;;;;34.80;30.67;;;;;;;23.62;71.52;100521.47;682598;28;1187;-85
2023/09/13 00:04:03;;;;;;;33.22;29.15;;;;;;;23.61;71.31;100523.25;680059;29;1168;-85
2023/09/13 00:04:24;;;;;;;34.33;28.15;;;;;;;23.63;71.43;100524.09;682395;29;1093;-85
2023/09/13 00:04:45;;;;;;;33.28;29.35;;;;;;;23.66;71.48;100524.00;688054;28;1135;-85
2023/09/13 00:05:05;;;;;;;32.37;28.93;;;;;;;23.68;71.50;100522.13;690687;28;1197;-85
2023/09/13 00:05:26;;;;;;;33.63;30.13;;;;;;;23.64;71.19;100514.28;684933;28;1208;-86
2023/09/13 00:05:47;;;;;;;33.85;30.33;;;;;;;23.69;71.27;100523.03;687987;28;1110;-85
2023/09/13 00:06:07;;;;;;;35.03;31.33;;;;;;;23.64;71.35;100515.19;682608;29;1184;-86
2023/09/13 00:06:29;;;;;;;34.60;30.90;;;;;;;23.66;71.45;100518.66;680297;28;1183;-85
2023/09/13 00:06:50;;;;;;;33.10;29.63;;;;;;;23.65;71.27;100516.03;689745;28;1255;-85
2023/09/13 00:07:11;;;;;;;33.15;29.00;;;;;;;23.69;71.48;100517.69;687650;28;998;-84
2023/09/13 00:07:31;;;;;;;34.80;29.60;;;;;;;23.73;71.42;100522.03;685094;28;1216;-84
2023/09/13 00:07:52;;;;;;;36.30;30.67;;;;;;;23.72;71.25;100522.94;679336;29;1220;-84
2023/09/13 00:08:13;;;;;;;35.63;31.77;;;;;;;23.65;71.45;100506.25;680001;29;1200;-85
2023/09/13 00:08:34;;;;;;;36.67;31.67;;;;;;;23.65;71.30;100508.03;682146;28;1261;-86
2023/09/13 00:08:54;;;;;;;36.85;31.23;;;;;;;23.67;71.21;100509.75;683015;29;949;-85
2023/09/13 00:09:15;;;;;;;34.27;29.70;;;;;;;23.69;71.24;100520.38;685463;28;1076;-85
2023/09/13 00:09:40;;;;;;;32.88;29.42;;;;;;;23.71;71.28;100523.00;684362;28;1072;-85
2023/09/13 00:10:01;;;;;;;34.05;30.65;;;;;;;23.68;71.21;100510.63;682785;29;1295;-84
2023/09/13 00:10:22;;;;;;;35.00;31.40;;;;;;;23.69;71.34;100517.69;687383;28;1056;-85
2023/09/13 00:10:44;;;;;;;34.65;31.15;;;;;;;23.68;71.40;100516.81;688069;28;1054;-86
2023/09/13 00:11:05;;;;;;;33.28;30.05;;;;;;;23.72;71.24;100517.63;686268;28;1386;-86
2023/09/13 00:11:26;;;;;;;34.28;30.70;;;;;;;23.74;71.28;100514.91;680303;29;1371;-86
2023/09/13 00:11:47;;;;;;;34.00;30.60;;;;;;;23.76;71.14;100521.94;680040;29;1203;-85
2023/09/13 00:12:08;;;;;;;34.22;30.80;;;;;;;23.73;71.40;100522.03;679987;29;1211;-85
2023/09/13 00:12:29;;;;;;;34.72;31.38;;;;;;;23.68;71.21;100515.97;680156;29;1366;-85
2023/09/13 00:12:50;;;;;;;33.63;30.33;;;;;;;23.64;71.18;100501.88;679932;29;1193;-85
2023/09/13 00:13:13;;;;;;;32.88;29.73;;;;;;;23.74;71.16;100522.91;687299;28;1307;-85
2023/09/13 00:13:33;;;;;;;32.90;29.58;;;;;;;23.67;71.39;100511.56;685375;28;1058;-84
2023/09/13 00:13:54;;;;;;;33.88;30.20;;;;;;;23.65;71.01;100518.69;684880;28;1174;-85
2023/09/13 00:14:14;;;;;;;32.95;29.52;;;;;;;23.70;71.34;100522.09;682669;28;1173;-84
2023/09/13 00:14:35;;;;;;;32.40;29.20;;;;;;;23.66;71.28;100520.44;690496;28;1207;-85
2023/09/13 00:14:56;;;;;;;31.85;28.65;;;;;;;23.66;71.31;100517.78;685512;28;1250;-84
2023/09/13 00:15:17;;;;;;;33.20;29.75;;;;;;;23.65;71.34;100510.72;685401;28;1162;-85
2023/09/13 00:15:43;;;;;;;34.10;30.70;;;;;;;23.68;71.27;100519.47;687874;28;1069;-84
2023/09/13 00:16:04;;;;;;;33.78;30.58;;;;;;;23.65;71.13;100518.69;683421;28;1267;-84
2023/09/13 00:16:25;;;;;;;33.75;30.35;;;;;;;23.63;71.32;100515.22;680315;29;1037;-85
2023/09/13 00:16:45;;;;;;;34.67;31.07;;;;;;;23.70;71.17;100524.75;682605;29;1239;-85
2023/09/13 00:17:06;;;;;;;35.20;31.35;;;;;;;23.67;71.30;100516.88;682311;28;1043;-85
2023/09/13 00:17:27;;;;;;;35.08;31.33;;;;;;;23.65;71.56;100522.25;685058;28;1199;-85
2023/09/13 00:17:48;;;;;;;33.85;30.30;;;;;;;23.69;71.36;100523.88;686924;28;1252;-85
2023/09/13 00:18:09;;;;;;;36.67;31.20;;;;;;;23.67;71.44;100516.88;687887;28;1358;-85
2023/09/13 00:18:30;;;;;;;38.08;31.42;;;;;;;23.68;71.37;100524.81;682556;29;1069;-84
2023/09/13 00:18:51;;;;;;;38.55;31.95;;;;;;;23.69;71.29;100520.38;682823;29;1158;-84
2023/09/13 00:19:12;;;;;;;35.67;31.80;;;;;;;23.73;71.38;100524.69;685362;28;1205;-85
2023/09/13 00:19:33;;;;;;;34.88;31.02;;;;;;;23.69;71.32;100523.03;682671;28;1271;-84
2023/09/13 00:19:57;;;;;;;35.23;31.43;;;;;;;23.71;71.23;100525.66;678189;29;757;-85
2023/09/13 00:20:17;;;;;;;36.13;31.73;;;;;;;23.72;71.18;100524.75;679975;29;1448;-84
2023/09/13 00:20:38;;;;;;;34.40;30.70;;;;;;;23.72;71.45;100533.59;679894;29;1297;-85
2023/09/13 00:20:59;;;;;;;34.43;30.33;;;;;;;23.71;71.43;100523.88;682296;29;1287;-83
2023/09/13 00:21:20;;;;;;;34.83;30.60;;;;;;;23.74;71.32;100531.78;685385;28;1143;-84
2023/09/13 00:21:42;;;;;;;34.22;30.27;;;;;;;23.72;71.42;100527.44;685253;28;1084;-84
2023/09/13 00:22:03;;;;;;;32.70;29.25;;;;;;;23.69;71.37;100525.69;683628;28;986;-85
2023/09/13 00:22:26;;;;;;;30.58;27.52;;;;;;;23.70;71.29;100527.44;682871;29;1174;-84
2023/09/13 00:22:47;;;;;;;30.48;27.17;;;;;;;23.73;71.33;100530.03;684708;28;1332;-84
2023/09/13 00:23:07;;;;;;;30.05;26.95;;;;;;;23.74;71.34;100542.44;685214;28;1282;-84
2023/09/13 00:23:28;;;;;;;29.80;26.60;;;;;;;23.67;71.44;100517.75;682964;29;1061;-84
2023/09/13 00:23:48;;;;;;;27.88;25.10;;;;;;;23.68;71.22;100521.28;677404;29;1225;-84
2023/09/13 00:24:10;;;;;;;26.53;23.83;;;;;;;23.73;71.09;100538.00;685346;28;992;-84
2023/09/13 00:24:30;;;;;;;26.27;23.58;;;;;;;23.71;71.06;100537.19;683952;28;1332;-83
2023/09/13 00:24:51;;;;;;;27.03;24.03;;;;;;;23.74;71.13;100531.78;685449;28;1021;-83
2023/09/13 00:25:12;;;;;;;29.02;24.15;;;;;;;23.69;71.34;100528.34;685454;28;958;-83
2023/09/13 00:25:32;;;;;;;27.25;23.40;;;;;;;23.63;71.16;100515.22;686859;28;1298;-84
2023/09/13 00:25:53;;;;;;;24.58;22.15;;;;;;;23.65;71.40;100527.56;683675;28;1216;-83
2023/09/13 00:26:14;;;;;;;24.40;22.00;;;;;;;23.68;71.14;100529.28;687952;28;1255;-83
2023/09/13 00:26:37;;;;;;;25.00;22.60;;;;;;;23.68;71.31;100538.13;684627;28;1413;-84
2023/09/13 00:26:57;;;;;;;24.83;22.42;;;;;;;23.67;71.37;100533.72;685371;28;1106;-84
2023/09/13 00:27:18;;;;;;;24.57;22.07;;;;;;;23.66;71.10;100528.44;684904;28;919;-85
2023/09/13 00:27:40;;;;;;;23.35;20.95;;;;;;;23.68;71.23;100539.94;681982;29;1127;-83
2023/09/13 00:28:00;;;;;;;22.90;20.50;;;;;;;23.61;71.02;100541.88;690829;28;967;-84
2023/09/13 00:28:21;;;;;;;22.05;19.70;;;;;;;23.60;71.07;100537.50;687201;28;1279;-84
2023/09/13 00:28:42;;;;;;;22.40;20.00;;;;;;;23.57;70.84;100534.94;679511;29;1142;-84
2023/09/13 00:29:02;;;;;;;22.38;20.08;;;;;;;23.54;71.17;100535.00;682795;29;1056;-84
2023/09/13 00:29:23;;;;;;;22.55;20.35;;;;;;;23.62;71.29;100542.78;682892;28;1199;-85
2023/09/13 00:29:44;;;;;;;22.23;20.03;;;;;;;23.59;71.35;100545.53;679823;29;1982;-85
2023/09/13 00:30:08;;;;;;;22.30;20.00;;;;;;;23.48;71.36;100530.75;681758;28;1236;-84
2023/09/13 00:30:29;;;;;;;21.73;19.42;;;;;;;23.52;71.17;100540.41;682508;29;1272;-83
2023/09/13 00:30:50;;;;;;;22.23;19.87;;;;;;;23.53;71.11;100541.25;685519;28;1031;-84
2023/09/13 00:31:10;;;;;;;23.33;20.67;;;;;;;23.55;71.11;100542.09;682728;28;1335;-85
2023/09/13 00:31:31;;;;;;;23.50;20.70;;;;;;;23.50;71.15;100530.69;684882;28;1169;-84
2023/09/13 00:31:52;;;;;;;23.37;20.87;;;;;;;23.51;71.20;100536.00;688128;28;1283;-84
2023/09/13 00:32:13;;;;;;;22.60;20.30;;;;;;;23.54;71.48;100545.66;688172;28;1013;-85
2023/09/13 00:32:33;;;;;;;23.98;20.42;;;;;;;23.51;71.39;100537.78;686211;28;1215;-83
2023/09/13 00:32:54;;;;;;;22.83;19.20;;;;;;;23.51;71.20;100530.66;680274;29;1174;-84
2023/09/13 00:33:14;;;;;;;21.90;18.70;;;;;;;23.49;71.25;100537.81;682588;29;1231;-84
2023/09/13 00:33:35;;;;;;;21.75;19.00;;;;;;;23.47;71.20;100531.66;681889;29;1189;-85
2023/09/13 00:33:56;;;;;;;23.25;19.25;;;;;;;23.51;71.12;100540.44;675171;29;1201;-83
2023/09/13 00:34:17;;;;;;;23.35;19.63;;;;;;;23.46;71.13;100537.91;677432;29;971;-84
2023/09/13 00:34:38;;;;;;;22.40;20.00;;;;;;;23.50;70.88;100542.25;682300;28;1072;-85
2023/09/13 00:34:58;;;;;;;22.27;20.08;;;;;;;23.51;70.89;100540.44;682917;29;1241;-84
2023/09/13 00:35:19;;;;;;;22.00;19.85;;;;;;;23.48;71.04;100535.22;682672;29;1212;-84
2023/09/13 00:35:40;;;;;;;21.30;19.20;;;;;;;23.48;70.93;100540.53;682589;29;1076;-84
2023/09/13 00:36:01;;;;;;;22.47;20.20;;;;;;;23.44;70.93;100534.44;680100;29;1178;-84
2023/09/13 00:36:21;;;;;;;22.67;20.38;;;;;;;23.46;70.95;100537.03;679250;29;1190;-84
2023/09/13 00:36:42;;;;;;;23.05;20.75;;;;;;;23.48;70.88;100536.06;690561;28;1179;-84
2023/09/13 00:37:03;;;;;;;22.60;20.20;;;;;;;23.46;70.97;100537.91;693282;28;1172;-84
2023/09/13 00:37:24;;;;;;;22.50;20.20;;;;;;;23.41;71.10;100534.50;685022;28;1023;-85
2023/09/13 00:37:44;;;;;;;22.17;19.88;;;;;;;23.41;70.92;100531.84;679867;29;1163;-84
2023/09/13 00:38:06;;;;;;;22.55;20.33;;;;;;;23.42;70.98;100536.25;684490;28;1096;-85
2023/09/13 00:38:27;;;;;;;22.05;19.95;;;;;;;23.40;71.03;100530.09;688216;28;871;-84
2023/09/13 00:38:47;;;;;;;22.07;19.87;;;;;;;23.43;71.08;100535.34;687919;28;1160;-85
2023/09/13 00:39:08;;;;;;;22.10;19.75;;;;;;;23.38;71.19;100527.50;682629;29;1229;-85
2023/09/13 00:39:29;;;;;;;24.83;20.13;;;;;;;23.43;71.09;100538.03;677519;29;1343;-84
2023/09/13 00:39:49;;;;;;;22.85;20.17;;;;;;;23.41;71.06;100534.50;677548;29;984;-84
2023/09/13 00:40:10;;;;;;;21.55;19.45;;;;;;;23.38;70.95;100530.16;678876;29;1166;-85
2023/09/13 00:40:31;;;;;;;20.88;18.88;;;;;;;23.39;71.20;100531.03;682702;28;1174;-84
2023/09/13 00:40:52;;;;;;;20.90;18.83;;;;;;;23.44;70.83;100549.53;682046;28;1442;-84
2023/09/13 00:41:13;;;;;;;21.00;18.90;;;;;;;23.37;71.14;100532.88;685344;28;1065;-84
2023/09/13 00:41:33;;;;;;;20.77;18.63;;;;;;;23.41;71.10;100550.47;682551;28;1070;-85
2023/09/13 00:41:56;;;;;;;21.10;18.70;;;;;;;23.32;71.04;100538.31;682727;28;1317;-84
2023/09/13 00:42:17;;;;;;;22.67;19.08;;;;;;;23.32;71.08;100534.78;682475;29;1205;-84
2023/09/13 00:42:38;;;;;;;21.42;19.02;;;;;;;23.30;71.11;100539.28;682330;28;1125;-85
2023/09/13 00:42:59;;;;;;;19.95;17.85;;;;;;;23.33;71.05;100544.50;681992;29;1145;-85
2023/09/13 00:43:20;;;;;;;20.52;18.42;;;;;;;23.38;70.80;100550.59;680054;29;1114;-84
2023/09/13 00:43:40;;;;;;;21.55;19.25;;;;;;;23.32;71.25;100546.31;682536;29;1117;-85
2023/09/13 00:44:01;;;;;;;22.10;19.70;;;;;;;23.29;71.06;100535.72;686572;28;1512;-84
2023/09/13 00:44:22;;;;;;;21.08;18.58;;;;;;;23.34;71.05;100539.16;685463;28;1363;-84
2023/09/13 00:44:42;;;;;;;20.42;18.13;;;;;;;23.30;71.07;100536.63;689488;28;1201;-84
2023/09/13 00:45:03;;;;;;;21.27;19.00;;;;;;;23.33;71.09;100542.72;687874;28;1288;-85
2023/09/13 00:45:25;;;;;;;22.45;20.15;;;;;;;23.35;71.17;100546.22;687759;28;1179;-85
2023/09/13 00:45:47;;;;;;;21.77;19.52;;;;;;;23.34;70.86;100546.25;687765;28;1316;-85
2023/09/13 00:46:07;;;;;;;23.40;19.25;;;;;;;23.29;71.14;100535.72;685681;28;1117;-84
2023/09/13 00:46:28;;;;;;;23.77;19.50;;;;;;;23.33;71.05;100547.16;685539;28;774;-84
2023/09/13 00:46:49;;;;;;;28.65;19.85;;;;;;;23.33;70.86;100547.16;682686;29;976;-84
2023/09/13 00:47:11;;;;;;;26.00;19.25;;;;;;;23.29;70.72;100546.38;676593;29;1760;-85
2023/09/13 00:47:32;;;;;;;22.58;18.05;;;;;;;23.29;70.83;100535.72;682461;29;1229;-86
2023/09/13 00:47:53;;;;;;;20.67;17.45;;;;;;;23.26;71.04;100535.84;684747;28;1259;-85
2023/09/13 00:48:15;;;;;;;19.98;17.33;;;;;;;23.25;71.01;100540.28;682708;29;1341;-85
2023/09/13 00:48:36;;;;;;;19.30;17.25;;;;;;;23.30;71.18;100545.47;684714;28;1256;-84
2023/09/13 00:48:57;;;;;;;18.80;17.05;;;;;;;23.28;71.08;100550.84;687826;28;1298;-84
2023/09/13 00:49:18;;;;;;;19.92;17.85;;;;;;;23.26;70.96;100543.81;687454;28;1273;-84
2023/09/13 00:49:39;;;;;;;30.60;18.40;;;;;;;23.23;70.77;100547.44;685085;28;1226;-84
2023/09/13 00:50:01;;;;;;;30.30;18.23;;;;;;;23.26;70.90;100557.13;682675;29;1903;-83
2023/09/13 00:50:22;;;;;;;21.88;17.40;;;;;;;23.21;70.80;100549.28;680157;29;1021;-83
2023/09/13 00:50:46;;;;;;;19.17;17.25;;;;;;;23.10;71.03;100532.72;679813;29;1022;-83
2023/09/13 00:51:08;;;;;;;18.13;16.33;;;;;;;23.11;71.09;100550.47;685135;28;1358;-84
2023/09/13 00:51:29;;;;;;;18.65;16.85;;;;;;;23.12;71.28;100563.72;685252;28;1217;-84
2023/09/13 00:51:53;;;;;;;18.35;16.55;;;;;;;23.10;71.56;100562.00;680136;29;952;-83
2023/09/13 00:52:15;;;;;;;18.52;16.70;;;;;;;23.01;71.36;100552.50;682516;28;1341;-84
2023/09/13 00:52:38;;;;;;;18.92;17.02;;;;;;;23.03;71.59;100560.47;685067;28;1132;-83
2023/09/13 00:52:59;;;;;;;19.30;17.30;;;;;;;23.01;71.51;100566.66;689226;28;772;-83
2023/09/13 00:53:21;;;;;;;20.35;17.52;;;;;;;22.95;71.74;100565.94;690933;28;950;-84
2023/09/13 00:53:42;;;;;;;20.10;17.15;;;;;;;22.88;71.77;100568.75;682239;29;1268;-83
2023/09/13 00:54:04;;;;;;;19.52;17.42;;;;;;;22.85;71.81;100567.97;682480;29;1258;-83
2023/09/13 00:54:25;;;;;;;18.20;16.50;;;;;;;22.87;71.77;100563.50;688122;28;806;-82
2023/09/13 00:54:46;;;;;;;18.55;16.65;;;;;;;22.79;71.79;100557.53;687375;28;1694;-83
2023/09/13 00:55:08;;;;;;;18.70;16.80;;;;;;;22.79;71.86;100569.00;682737;29;952;-83
2023/09/13 00:55:31;;;;;;;19.20;17.08;;;;;;;22.69;72.42;100581.66;679815;29;1373;-82
2023/09/13 00:55:53;;;;;;;19.90;17.40;;;;;;;22.65;72.49;100564.06;682470;28;1275;-83
2023/09/13 00:56:15;;;;;;;18.88;16.85;;;;;;;22.69;72.55;100563.06;685271;28;1017;-83
2023/09/13 00:56:37;;;;;;;18.58;16.70;;;;;;;22.67;72.44;100564.88;685124;28;1106;-84
2023/09/13 00:56:58;;;;;;;18.15;16.45;;;;;;;22.68;72.33;100563.13;677421;29;1378;-83
2023/09/13 00:57:21;;;;;;;17.40;15.73;;;;;;;22.70;72.32;100570.13;679595;29;1243;-84
2023/09/13 00:57:42;;;;;;;17.40;15.70;;;;;;;22.72;72.17;100575.41;682320;29;1277;-83
2023/09/13 00:58:05;;;;;;;17.63;15.73;;;;;;;22.72;72.49;100578.94;682684;29;1089;-83
2023/09/13 00:58:26;;;;;;;17.92;15.93;;;;;;;22.72;72.42;100568.31;682883;29;1143;-83
2023/09/13 00:58:47;;;;;;;18.98;16.75;;;;;;;22.70;72.65;100570.13;685074;28;1067;-82
2023/09/13 00:59:09;;;;;;;19.33;17.33;;;;;;;22.70;72.59;100563.94;679986;29;955;-83
2023/09/13 00:59:30;;;;;;;19.35;17.35;;;;;;;22.68;72.37;100563.97;682659;29;998;-82
2023/09/13 00:59:51;;;;;;;20.40;17.67;;;;;;;22.67;72.65;100564.88;680142;29;1135;-83
2023/09/13 01:00:12;;;;;;;21.50;18.13;;;;;;;22.70;72.58;100567.47;682481;28;1107;-82
2023/09/13 01:00:35;;;;;;;21.85;17.98;;;;;;;22.72;72.45;100570.09;682398;29;982;-83
2023/09/13 01:00:56;;;;;;;19.80;17.80;;;;;;;22.66;72.69;100548.97;685431;28;847;-82
2023/09/13 01:01:17;;;;;;;19.95;17.95;;;;;;;22.71;72.44;100566.56;682449;29;1193;-83
2023/09/13 01:01:38;;;;;;;20.38;18.38;;;;;;;22.67;72.59;100562.22;682439;29;1061;-83
2023/09/13 01:01:59;;;;;;;19.45;17.58;;;;;;;22.73;72.42;100570.06;687387;28;1408;-82
2023/09/13 01:02:20;;;;;;;21.77;18.33;;;;;;;22.71;72.43;100563.91;684420;28;1359;-82
2023/09/13 01:02:42;;;;;;;20.97;17.60;;;;;;;22.76;72.37;100576.19;685388;28;1098;-82
2023/09/13 01:03:05;;;;;;;21.40;17.90;;;;;;;22.79;72.33;100573.47;685006;28;1415;-83
2023/09/13 01:03:26;;;;;;;19.92;17.83;;;;;;;22.74;72.22;100565.59;682710;28;1363;-82
2023/09/13 01:03:47;;;;;;;20.15;18.05;;;;;;;22.76;72.31;100568.22;687467;28;1140;-82
2023/09/13 01:04:08;;;;;;;19.65;17.75;;;;;;;22.78;72.29;100574.34;682401;29;1150;-83
2023/09/13 01:04:28;;;;;;;18.95;17.15;;;;;;;22.79;72.40;100573.47;682841;29;1138;-82
2023/09/13 01:04:49;;;;;;;20.42;18.10;;;;;;;22.78;72.25;100577.91;685250;28;1099;-83
2023/09/13 01:05:13;;;;;;;21.13;18.53;;;;;;;22.78;72.17;100574.34;685268;28;1163;-82
2023/09/13 01:05:36;;;;;;;21.13;18.67;;;;;;;22.80;72.08;100580.53;686849;28;1208;-82
2023/09/13 01:05:57;;;;;;;20.27;18.15;;;;;;;22.81;72.39;100582.28;685456;28;1218;-82
2023/09/13 01:06:18;;;;;;;20.70;17.73;;;;;;;22.76;72.27;100568.22;684970;28;1219;-82
2023/09/13 01:06:39;;;;;;;20.65;18.30;;;;;;;22.80;72.23;100575.22;681569;29;1117;-83
2023/09/13 01:07:00;;;;;;;20.02;17.95;;;;;;;22.85;72.36;100583.94;684781;28;1288;-84
2023/09/13 01:07:21;;;;;;;20.45;18.35;;;;;;;22.84;72.00;100575.09;687037;28;1220;-82
2023/09/13 01:07:46;;;;;;;20.83;18.33;;;;;;;22.90;72.22;100579.38;682127;29;1363;-82
2023/09/13 01:08:07;;;;;;;20.88;18.40;;;;;;;22.94;72.25;100589.00;685241;28;1109;-83
2023/09/13 01:08:28;;;;;;;21.10;18.90;;;;;;;22.84;72.04;100568.88;688081;28;1218;-82
2023/09/13 01:08:49;;;;;;;20.70;18.60;;;;;;;22.87;72.18;100571.47;687952;28;1111;-83
2023/09/13 01:09:13;;;;;;;20.58;18.50;;;;;;;22.87;72.15;100577.66;685021;28;954;-83
2023/09/13 01:09:35;;;;;;;19.67;17.42;;;;;;;22.90;71.71;100574.06;681951;29;1101;-83
2023/09/13 01:09:55;;;;;;;23.57;17.30;;;;;;;22.85;71.83;100567.97;688024;28;1910;-83
2023/09/13 01:10:16;;;;;;;24.58;17.40;;;;;;;22.84;72.00;100566.22;682630;29;1075;-83
2023/09/13 01:10:37;;;;;;;22.03;17.30;;;;;;;22.87;71.60;100560.84;685049;28;1154;-82
2023/09/13 01:10:58;;;;;;;19.05;17.05;;;;;;;22.86;71.93;100567.94;682722;28;1094;-82
2023/09/13 01:11:19;;;;;;;19.77;17.77;;;;;;;22.91;71.92;100575.78;685014;28;1059;-83
2023/09/13 01:11:40;;;;;;;19.67;17.67;;;;;;;22.87;72.07;100566.16;684550;28;1179;-83
2023/09/13 01:12:01;;;;;;;19.70;17.60;;;;;;;22.85;71.84;100567.97;685322;28;1057;-83
2023/09/13 01:12:22;;;;;;;20.63;17.00;;;;;;;22.76;71.79;100561.13;685409;28;1114;-83
2023/09/13 01:12:43;;;;;;;21.90;18.00;;;;;;;22.84;71.94;100566.22;687639;28;1292;-83
2023/09/13 01:13:03;;;;;;;21.07;17.70;;;;;;;22.86;71.97;100567.03;686756;28;1081;-83
2023/09/13 01:13:24;;;;;;;21.52;18.08;;;;;;;22.86;71.85;100575.91;682754;29;1274;-83
2023/09/13 01:13:45;;;;;;;21.53;17.87;;;;;;;22.84;72.02;100566.22;682497;29;1371;-83
2023/09/13 01:14:05;;;;;;;22.42;18.13;;;;;;;22.82;71.98;100566.25;682053;28;1303;-83
2023/09/13 01:14:26;;;;;;;20.20;18.00;;;;;;;22.83;71.80;100565.38;680301;29;1169;-84
2023/09/13 01:14:47;;;;;;;20.10;18.00;;;;;;;22.85;71.84;100567.97;679894;29;1089;-84
2023/09/13 01:15:08;;;;;;;20.60;18.40;;;;;;;22.85;71.83;100568.84;682585;29;919;-85
2023/09/13 01:15:33;;;;;;;20.25;17.80;;;;;;;22.79;71.79;100570.81;682594;28;1042;-83
2023/09/13 01:16:15;;;;;;;19.52;17.20;;;;;;;22.80;71.59;100568.09;685553;28;747;-83
2023/09/13 01:16:41;;;;;;;19.52;17.63;;;;;;;22.81;71.72;100575.16;685070;28;1106;-84
2023/09/13 01:17:14;;;;;;;18.98;17.27;;;;;;;22.80;71.88;100584.06;684600;28;1076;-83
2023/09/13 01:17:47;;;;;;;19.65;17.75;;;;;;;22.77;71.72;100575.28;684797;28;1297;-83
2023/09/13 01:18:28;;;;;;;19.95;17.95;;;;;;;22.76;71.67;100573.53;685193;28;1335;-84
2023/09/13 01:19:06;;;;;;;21.15;18.33;;;;;;;22.69;72.02;100575.50;685094;28;1248;-84
2023/09/13 01:19:50;;;;;;;19.20;17.10;;;;;;;22.73;71.85;100580.69;682995;28;1230;-84
2023/09/13 01:20:21;;;;;;;19.58;17.63;;;;;;;22.66;72.01;100576.44;682257;29;1081;-83
2023/09/13 01:21:05;;;;;;;18.45;16.55;;;;;;;22.68;72.02;100582.59;683145;28;1099;-84
2023/09/13 01:21:44;;;;;;;21.27;19.10;;;;;;;22.64;72.13;100572.97;682905;29;812;-83
2023/09/13 01:22:11;;;;;;;19.95;17.85;;;;;;;22.69;71.88;100576.34;685141;28;1138;-83
2023/09/13 01:22:34;;;;;;;21.13;17.52;;;;;;;22.72;72.02;100578.06;682487;29;1145;-84
2023/09/13 01:23:05;;;;;;;23.60;17.77;;;;;;;22.72;72.11;100578.94;682618;29;1375;-83
2023/09/13 01:23:53;;;;;;;20.40;18.15;;;;;;;22.83;71.64;100575.13;682954;28;949;-83
2023/09/13 01:24:20;;;;;;;25.17;19.10;;;;;;;22.87;71.59;100587.44;682566;29;1157;-85
2023/09/13 01:24:58;;;;;;;26.00;19.48;;;;;;;22.86;71.13;100573.25;685249;28;1522;-83
2023/09/13 01:25:31;;;;;;;22.77;20.38;;;;;;;22.90;71.55;100576.72;680106;29;1115;-84
2023/09/13 01:26:07;;;;;;;21.90;19.70;;;;;;;22.86;71.40;100567.94;677436;29;1181;-84
2023/09/13 01:28:12;;;;;;;22.55;20.20;;;;;;;22.93;71.22;100581.94;681000;29;1134;-83
2023/09/13 01:28:41;;;;;;;24.75;20.85;;;;;;;22.91;71.17;100570.47;687334;28;1142;-82
2023/09/13 01:29:04;;;;;;;23.23;20.13;;;;;;;22.83;71.24;100564.47;687926;28;1021;-83
2023/09/13 01:29:25;;;;;;;22.58;19.15;;;;;;;22.71;71.60;100560.38;688002;28;1164;-83
2023/09/13 01:29:46;;;;;;;21.50;19.30;;;;;;;22.75;71.94;100575.34;685079;28;1911;-83
2023/09/13 01:30:08;;;;;;;22.73;19.67;;;;;;;22.68;72.05;100566.63;680525;28;1118;-84
2023/09/13 01:30:30;;;;;;;22.98;20.58;;;;;;;22.66;72.12;100565.81;674849;29;1242;-84
2023/09/13 01:30:51;;;;;;;23.35;20.52;;;;;;;22.62;72.12;100566.78;680035;29;1088;-83
2023/09/13 01:31:17;;;;;;;23.27;20.83;;;;;;;22.61;72.16;100565.03;679879;29;1122;-83
2023/09/13 01:31:38;;;;;;;23.48;21.02;;;;;;;22.62;72.26;100556.16;681700;29;1244;-84
2023/09/13 01:31:59;;;;;;;24.63;22.13;;;;;;;22.66;72.06;100563.16;680156;29;1158;-84
2023/09/13 01:32:20;;;;;;;25.08;22.48;;;;;;;22.63;72.15;100565.91;682782;29;1038;-84
2023/09/13 01:32:44;;;;;;;25.55;22.83;;;;;;;22.66;72.12;100572.91;684531;28;1322;-83
2023/09/13 01:33:05;;;;;;;26.70;22.00;;;;;;;22.65;72.14;100573.81;690475;28;1387;-83
2023/09/13 01:33:25;;;;;;;25.38;21.80;;;;;;;22.61;72.29;100554.41;685271;28;899;-83
2023/09/13 01:33:47;;;;;;;24.42;21.88;;;;;;;22.62;72.37;100571.25;687787;28;1078;-83
2023/09/13 01:34:08;;;;;;;24.15;21.75;;;;;;;22.63;72.37;100562.34;687863;28;1206;-83
2023/09/13 01:34:28;;;;;;;24.50;21.67;;;;;;;22.62;72.55;100560.59;693399;28;1125;-86
2023/09/13 01:34:49;;;;;;;25.20;21.57;;;;;;;22.64;72.59;100567.63;687890;28;931;-86
2023/09/13 01:35:10;;;;;;;26.20;22.27;;;;;;;22.68;72.62;100571.94;682359;28;1189;-86
2023/09/13 01:35:30;;;;;;;25.35;22.70;;;;;;;22.59;72.63;100556.22;677176;29;1197;-83
2023/09/13 01:35:51;;;;;;;25.15;22.55;;;;;;;22.65;72.42;100569.38;682699;28;1084;-83
2023/09/13 01:36:12;;;;;;;24.70;22.10;;;;;;;22.59;72.52;100553.56;682641;28;1162;-84
2023/09/13 01:36:33;;;;;;;24.07;21.67;;;;;;;22.61;72.46;100565.03;684853;28;1159;-83
2023/09/13 01:36:54;;;;;;;24.60;22.00;;;;;;;22.62;72.29;100560.59;685170;28;1324;-84
2023/09/13 01:37:14;;;;;;;24.73;22.23;;;;;;;22.58;72.20;100551.84;686284;28;1300;-83
2023/09/13 01:37:35;;;;;;;24.33;21.88;;;;;;;22.63;72.27;100567.66;687653;28;1113;-83
2023/09/13 01:37:56;;;;;;;22.88;20.67;;;;;;;22.60;72.40;100556.22;684987;28;1312;-84
2023/09/13 01:38:17;;;;;;;27.17;20.47;;;;;;;22.56;72.33;100551.88;685165;28;1305;-84
2023/09/13 01:38:38;;;;;;;28.70;20.48;;;;;;;22.56;72.47;100562.50;684983;28;1063;-84
2023/09/13 01:39:00;;;;;;;30.38;21.27;;;;;;;22.60;72.40;100557.97;685506;28;854;-84
2023/09/13 01:39:20;;;;;;;31.67;21.85;;;;;;;22.67;72.44;100556.91;688035;28;1100;-84
2023/09/13 01:39:41;;;;;;;32.10;22.65;;;;;;;22.64;72.13;100564.09;682357;28;1231;-84
2023/09/13 01:40:05;;;;;;;28.35;22.58;;;;;;;22.64;72.35;100574.72;677395;29;1027;-86
2023/09/13 01:40:32;;;;;;;23.98;21.67;;;;;;;22.58;72.15;100559.81;682600;28;1175;-85
2023/09/13 01:41:01;;;;;;;23.60;21.30;;;;;;;22.55;72.28;100570.50;682659;29;1215;-83
2023/09/13 01:41:29;;;;;;;23.83;21.33;;;;;;;22.54;72.33;100560.78;684968;28;1130;-85
2023/09/13 01:41:58;;;;;;;24.73;22.13;;;;;;;22.53;72.50;100569.69;684509;28;1263;-85
2023/09/13 01:42:20;;;;;;;26.02;23.33;;;;;;;22.51;72.76;100564.44;687754;28;1338;-84
2023/09/13 01:42:43;;;;;;;24.70;22.20;;;;;;;22.53;72.73;100569.69;690263;28;1387;-84
2023/09/13 01:43:06;;;;;;;26.85;22.45;;;;;;;22.53;72.61;100572.34;679803;29;1303;-84
2023/09/13 01:43:27;;;;;;;25.27;20.70;;;;;;;22.56;72.38;100580.25;682643;29;1392;-83
2023/09/13 01:47:42;;;;;;;26.65;23.95;;;;;;;22.54;72.49;100564.34;685218;28;882;-84
2023/09/13 01:48:18;;;;;;;29.23;26.08;;;;;;;22.56;72.47;100572.28;688110;28;940;-84
2023/09/13 01:48:40;;;;;;;29.88;26.25;;;;;;;22.53;72.60;100556.38;684951;28;1368;-84
2023/09/13 01:49:02;;;;;;;29.20;25.60;;;;;;;22.66;72.58;100567.56;681589;29;1423;-84
2023/09/13 01:49:26;;;;;;;28.88;25.90;;;;;;;22.70;72.42;100566.59;685238;28;1273;-85
2023/09/13 01:49:48;;;;;;;29.02;25.55;;;;;;;22.70;72.37;100559.47;687785;28;1980;-84